sensor_id;sensor_type;location;lat;lon;timestamp;P1;durP1;ratioP1;P2;durP2;ratioP2
1679;SDS011;838;51.794;12.258;2023-06-22T00:00:56;8.00;;;6.40;;
1679;SDS011;838;51.794;12.258;2023-06-22T00:03:23;7.63;;;6.00;;
1679;SDS011;838;51.794;12.258;2023-06-22T00:05:50;7.50;;;5.80;;
1679;SDS011;838;51.794;12.258;2023-06-22T00:08:17;6.87;;;5.60;;
1679;SDS011;838;51.794;12.258;2023-06-22T00:10:43;7.57;;;6.27;;
1679;SDS011;838;51.794;12.258;2023-06-22T00:13:11;7.10;;;6.20;;
1679;SDS011;838;51.794;12.258;2023-06-22T00:15:37;7.00;;;5.70;;
1679;SDS011;838;51.794;12.258;2023-06-22T00:18:05;8.00;;;5.80;;
1679;SDS011;838;51.794;12.258;2023-06-22T00:20:31;7.37;;;6.27;;
1679;SDS011;838;51.794;12.258;2023-06-22T00:22:58;8.00;;;5.47;;
1679;SDS011;838;51.794;12.258;2023-06-22T00:25:24;7.07;;;6.20;;
1679;SDS011;838;51.794;12.258;2023-06-22T00:27:50;7.40;;;6.17;;
1679;SDS011;838;51.794;12.258;2023-06-22T00:30:16;6.90;;;6.00;;
1679;SDS011;838;51.794;12.258;2023-06-22T00:32:43;7.53;;;6.10;;
1679;SDS011;838;51.794;12.258;2023-06-22T00:35:09;7.40;;;6.00;;
1679;SDS011;838;51.794;12.258;2023-06-22T00:37:37;7.47;;;6.40;;
1679;SDS011;838;51.794;12.258;2023-06-22T00:40:06;8.40;;;7.07;;
1679;SDS011;838;51.794;12.258;2023-06-22T00:42:33;8.70;;;7.80;;
1679;SDS011;838;51.794;12.258;2023-06-22T00:44:59;8.50;;;7.60;;
1679;SDS011;838;51.794;12.258;2023-06-22T00:47:25;7.30;;;6.40;;
1679;SDS011;838;51.794;12.258;2023-06-22T00:49:51;7.43;;;6.37;;
1679;SDS011;838;51.794;12.258;2023-06-22T00:52:19;8.17;;;7.37;;
1679;SDS011;838;51.794;12.258;2023-06-22T00:54:52;7.60;;;6.67;;
1679;SDS011;838;51.794;12.258;2023-06-22T00:57:18;9.00;;;6.90;;
1679;SDS011;838;51.794;12.258;2023-06-22T00:59:45;6.53;;;5.83;;
1679;SDS011;838;51.794;12.258;2023-06-22T01:02:12;7.73;;;6.63;;
1679;SDS011;838;51.794;12.258;2023-06-22T01:04:38;6.73;;;6.03;;
1679;SDS011;838;51.794;12.258;2023-06-22T01:09:42;8.47;;;6.87;;
1679;SDS011;838;51.794;12.258;2023-06-22T01:12:22;7.43;;;6.57;;
1679;SDS011;838;51.794;12.258;2023-06-22T01:14:50;7.87;;;6.77;;
1679;SDS011;838;51.794;12.258;2023-06-22T01:17:20;8.20;;;7.40;;
1679;SDS011;838;51.794;12.258;2023-06-22T01:19:49;8.10;;;6.70;;
1679;SDS011;838;51.794;12.258;2023-06-22T01:22:24;7.47;;;5.83;;
1679;SDS011;838;51.794;12.258;2023-06-22T01:25:06;7.03;;;6.30;;
1679;SDS011;838;51.794;12.258;2023-06-22T01:30:25;12.10;;;7.50;;
1679;SDS011;838;51.794;12.258;2023-06-22T01:32:54;7.80;;;7.00;;
1679;SDS011;838;51.794;12.258;2023-06-22T01:35:23;9.30;;;7.53;;
1679;SDS011;838;51.794;12.258;2023-06-22T01:37:53;9.07;;;7.70;;
1679;SDS011;838;51.794;12.258;2023-06-22T01:40:20;7.87;;;7.07;;
1679;SDS011;838;51.794;12.258;2023-06-22T01:42:47;7.20;;;6.20;;
1679;SDS011;838;51.794;12.258;2023-06-22T01:45:15;9.63;;;6.90;;
1679;SDS011;838;51.794;12.258;2023-06-22T01:47:42;9.77;;;6.47;;
1679;SDS011;838;51.794;12.258;2023-06-22T01:50:08;8.67;;;6.90;;
1679;SDS011;838;51.794;12.258;2023-06-22T01:52:37;8.20;;;6.77;;
1679;SDS011;838;51.794;12.258;2023-06-22T01:55:03;7.50;;;6.43;;
1679;SDS011;838;51.794;12.258;2023-06-22T01:57:30;7.13;;;5.97;;
1679;SDS011;838;51.794;12.258;2023-06-22T02:00:01;7.40;;;6.00;;
1679;SDS011;838;51.794;12.258;2023-06-22T02:02:43;7.17;;;6.03;;
1679;SDS011;838;51.794;12.258;2023-06-22T02:05:12;8.93;;;6.70;;
1679;SDS011;838;51.794;12.258;2023-06-22T02:07:46;8.20;;;7.30;;
1679;SDS011;838;51.794;12.258;2023-06-22T02:10:21;8.70;;;7.80;;
1679;SDS011;838;51.794;12.258;2023-06-22T02:12:48;8.43;;;7.20;;
1679;SDS011;838;51.794;12.258;2023-06-22T02:15:15;8.70;;;6.70;;
1679;SDS011;838;51.794;12.258;2023-06-22T02:17:41;8.60;;;7.70;;
1679;SDS011;838;51.794;12.258;2023-06-22T02:20:13;8.30;;;7.13;;
1679;SDS011;838;51.794;12.258;2023-06-22T02:22:40;7.87;;;6.87;;
1679;SDS011;838;51.794;12.258;2023-06-22T02:25:06;7.80;;;6.90;;
1679;SDS011;838;51.794;12.258;2023-06-22T02:27:32;8.43;;;6.80;;
1679;SDS011;838;51.794;12.258;2023-06-22T02:29:58;7.90;;;6.70;;
1679;SDS011;838;51.794;12.258;2023-06-22T02:32:24;7.40;;;6.23;;
1679;SDS011;838;51.794;12.258;2023-06-22T02:34:50;9.53;;;6.93;;
1679;SDS011;838;51.794;12.258;2023-06-22T02:37:16;9.00;;;7.40;;
1679;SDS011;838;51.794;12.258;2023-06-22T02:39:42;9.00;;;7.17;;
1679;SDS011;838;51.794;12.258;2023-06-22T02:42:08;8.00;;;6.60;;
1679;SDS011;838;51.794;12.258;2023-06-22T02:44:35;8.70;;;7.00;;
1679;SDS011;838;51.794;12.258;2023-06-22T02:47:04;8.73;;;7.70;;
1679;SDS011;838;51.794;12.258;2023-06-22T02:49:40;10.23;;;7.77;;
1679;SDS011;838;51.794;12.258;2023-06-22T02:52:07;9.03;;;8.07;;
1679;SDS011;838;51.794;12.258;2023-06-22T02:54:33;9.30;;;7.70;;
1679;SDS011;838;51.794;12.258;2023-06-22T02:56:59;8.87;;;7.87;;
1679;SDS011;838;51.794;12.258;2023-06-22T02:59:28;10.00;;;7.40;;
1679;SDS011;838;51.794;12.258;2023-06-22T03:01:54;8.70;;;7.67;;
1679;SDS011;838;51.794;12.258;2023-06-22T03:04:20;10.73;;;8.77;;
1679;SDS011;838;51.794;12.258;2023-06-22T03:06:45;9.87;;;8.03;;
1679;SDS011;838;51.794;12.258;2023-06-22T03:09:16;11.70;;;8.70;;
1679;SDS011;838;51.794;12.258;2023-06-22T03:11:42;11.60;;;10.13;;
1679;SDS011;838;51.794;12.258;2023-06-22T03:14:08;9.87;;;8.87;;
1679;SDS011;838;51.794;12.258;2023-06-22T03:16:34;10.13;;;9.03;;
1679;SDS011;838;51.794;12.258;2023-06-22T03:19:00;10.90;;;9.27;;
1679;SDS011;838;51.794;12.258;2023-06-22T03:21:28;11.03;;;9.17;;
1679;SDS011;838;51.794;12.258;2023-06-22T03:23:54;9.77;;;8.77;;
1679;SDS011;838;51.794;12.258;2023-06-22T03:26:20;14.13;;;9.80;;
1679;SDS011;838;51.794;12.258;2023-06-22T03:28:46;11.43;;;9.77;;
1679;SDS011;838;51.794;12.258;2023-06-22T03:31:12;10.90;;;9.80;;
1679;SDS011;838;51.794;12.258;2023-06-22T03:33:38;10.67;;;9.33;;
1679;SDS011;838;51.794;12.258;2023-06-22T03:36:03;9.80;;;8.60;;
1679;SDS011;838;51.794;12.258;2023-06-22T03:38:32;9.03;;;8.13;;
1679;SDS011;838;51.794;12.258;2023-06-22T03:40:58;8.70;;;7.70;;
1679;SDS011;838;51.794;12.258;2023-06-22T03:43:23;9.87;;;8.80;;
1679;SDS011;838;51.794;12.258;2023-06-22T03:45:49;12.03;;;10.50;;
1679;SDS011;838;51.794;12.258;2023-06-22T03:48:15;12.90;;;9.57;;
1679;SDS011;838;51.794;12.258;2023-06-22T03:50:40;11.90;;;9.63;;
1679;SDS011;838;51.794;12.258;2023-06-22T03:53:06;11.50;;;9.40;;
1679;SDS011;838;51.794;12.258;2023-06-22T03:55:33;10.87;;;9.30;;
1679;SDS011;838;51.794;12.258;2023-06-22T03:58:00;12.00;;;10.47;;
1679;SDS011;838;51.794;12.258;2023-06-22T04:00:31;11.23;;;9.10;;
1679;SDS011;838;51.794;12.258;2023-06-22T04:02:57;10.97;;;9.40;;
1679;SDS011;838;51.794;12.258;2023-06-22T04:05:23;11.10;;;9.30;;
1679;SDS011;838;51.794;12.258;2023-06-22T04:07:49;12.20;;;10.57;;
1679;SDS011;838;51.794;12.258;2023-06-22T04:10:15;9.90;;;8.73;;
1679;SDS011;838;51.794;12.258;2023-06-22T04:12:41;10.63;;;9.53;;
1679;SDS011;838;51.794;12.258;2023-06-22T04:15:07;12.27;;;10.50;;
1679;SDS011;838;51.794;12.258;2023-06-22T04:17:33;10.73;;;9.07;;
1679;SDS011;838;51.794;12.258;2023-06-22T04:19:58;10.53;;;9.43;;
1679;SDS011;838;51.794;12.258;2023-06-22T04:22:24;9.97;;;8.97;;
1679;SDS011;838;51.794;12.258;2023-06-22T04:24:50;10.00;;;9.00;;
1679;SDS011;838;51.794;12.258;2023-06-22T04:27:16;10.60;;;9.20;;
1679;SDS011;838;51.794;12.258;2023-06-22T04:29:48;12.33;;;9.83;;
1679;SDS011;838;51.794;12.258;2023-06-22T04:32:17;10.40;;;9.30;;
1679;SDS011;838;51.794;12.258;2023-06-22T04:34:51;11.40;;;9.63;;
1679;SDS011;838;51.794;12.258;2023-06-22T04:37:17;11.30;;;10.10;;
1679;SDS011;838;51.794;12.258;2023-06-22T04:39:43;11.27;;;9.80;;
1679;SDS011;838;51.794;12.258;2023-06-22T04:42:12;11.40;;;9.03;;
1679;SDS011;838;51.794;12.258;2023-06-22T04:44:38;11.30;;;10.10;;
1679;SDS011;838;51.794;12.258;2023-06-22T04:47:05;10.70;;;9.27;;
1679;SDS011;838;51.794;12.258;2023-06-22T04:49:33;10.77;;;9.00;;
1679;SDS011;838;51.794;12.258;2023-06-22T04:52:03;12.27;;;10.50;;
1679;SDS011;838;51.794;12.258;2023-06-22T04:54:34;11.93;;;9.77;;
1679;SDS011;838;51.794;12.258;2023-06-22T04:57:01;11.33;;;9.50;;
1679;SDS011;838;51.794;12.258;2023-06-22T04:59:28;10.10;;;9.00;;
1679;SDS011;838;51.794;12.258;2023-06-22T05:01:56;13.07;;;10.47;;
1679;SDS011;838;51.794;12.258;2023-06-22T05:04:23;11.00;;;9.90;;
1679;SDS011;838;51.794;12.258;2023-06-22T05:06:49;11.73;;;10.53;;
1679;SDS011;838;51.794;12.258;2023-06-22T05:09:16;13.10;;;9.80;;
1679;SDS011;838;51.794;12.258;2023-06-22T05:11:42;10.60;;;9.27;;
1679;SDS011;838;51.794;12.258;2023-06-22T05:14:09;11.80;;;9.80;;
1679;SDS011;838;51.794;12.258;2023-06-22T05:16:35;11.03;;;9.87;;
1679;SDS011;838;51.794;12.258;2023-06-22T05:19:06;10.40;;;8.97;;
1679;SDS011;838;51.794;12.258;2023-06-22T05:21:31;10.90;;;9.70;;
1679;SDS011;838;51.794;12.258;2023-06-22T05:23:57;10.23;;;9.23;;
1679;SDS011;838;51.794;12.258;2023-06-22T05:26:28;10.10;;;9.10;;
1679;SDS011;838;51.794;12.258;2023-06-22T05:28:55;10.63;;;9.53;;
1679;SDS011;838;51.794;12.258;2023-06-22T05:31:21;10.97;;;9.87;;
1679;SDS011;838;51.794;12.258;2023-06-22T05:33:48;11.33;;;9.97;;
1679;SDS011;838;51.794;12.258;2023-06-22T05:36:17;12.03;;;10.20;;
1679;SDS011;838;51.794;12.258;2023-06-22T05:38:52;10.63;;;9.27;;
1679;SDS011;838;51.794;12.258;2023-06-22T05:41:18;10.63;;;9.60;;
1679;SDS011;838;51.794;12.258;2023-06-22T05:43:50;11.00;;;9.50;;
1679;SDS011;838;51.794;12.258;2023-06-22T05:46:16;10.10;;;9.03;;
1679;SDS011;838;51.794;12.258;2023-06-22T05:48:45;15.30;;;10.77;;
1679;SDS011;838;51.794;12.258;2023-06-22T05:51:11;13.57;;;9.87;;
1679;SDS011;838;51.794;12.258;2023-06-22T05:53:37;11.40;;;10.20;;
1679;SDS011;838;51.794;12.258;2023-06-22T05:56:02;12.07;;;10.77;;
1679;SDS011;838;51.794;12.258;2023-06-22T05:58:29;11.67;;;10.43;;
1679;SDS011;838;51.794;12.258;2023-06-22T06:00:54;11.97;;;10.23;;
1679;SDS011;838;51.794;12.258;2023-06-22T06:03:20;11.13;;;9.93;;
1679;SDS011;838;51.794;12.258;2023-06-22T06:05:49;10.33;;;9.33;;
1679;SDS011;838;51.794;12.258;2023-06-22T06:08:15;12.03;;;10.27;;
1679;SDS011;838;51.794;12.258;2023-06-22T06:10:44;10.83;;;9.60;;
1679;SDS011;838;51.794;12.258;2023-06-22T06:13:10;11.50;;;10.10;;
1679;SDS011;838;51.794;12.258;2023-06-22T06:15:35;10.70;;;9.60;;
1679;SDS011;838;51.794;12.258;2023-06-22T06:18:01;10.57;;;9.53;;
1679;SDS011;838;51.794;12.258;2023-06-22T06:20:30;11.83;;;9.90;;
1679;SDS011;838;51.794;12.258;2023-06-22T06:23:00;12.23;;;10.93;;
1679;SDS011;838;51.794;12.258;2023-06-22T06:25:34;11.10;;;9.90;;
1679;SDS011;838;51.794;12.258;2023-06-22T06:28:00;10.73;;;9.63;;
1679;SDS011;838;51.794;12.258;2023-06-22T06:30:29;11.60;;;9.80;;
1679;SDS011;838;51.794;12.258;2023-06-22T06:32:54;11.93;;;10.53;;
1679;SDS011;838;51.794;12.258;2023-06-22T06:35:20;11.00;;;9.77;;
1679;SDS011;838;51.794;12.258;2023-06-22T06:37:50;11.50;;;10.40;;
1679;SDS011;838;51.794;12.258;2023-06-22T06:40:16;11.33;;;10.20;;
1679;SDS011;838;51.794;12.258;2023-06-22T06:42:44;11.10;;;10.00;;
1679;SDS011;838;51.794;12.258;2023-06-22T06:45:20;13.10;;;10.67;;
1679;SDS011;838;51.794;12.258;2023-06-22T06:47:51;10.33;;;9.33;;
1679;SDS011;838;51.794;12.258;2023-06-22T06:50:18;11.00;;;9.90;;
1679;SDS011;838;51.794;12.258;2023-06-22T06:52:44;10.93;;;9.70;;
1679;SDS011;838;51.794;12.258;2023-06-22T06:55:10;10.63;;;9.53;;
1679;SDS011;838;51.794;12.258;2023-06-22T06:57:40;10.70;;;9.60;;
1679;SDS011;838;51.794;12.258;2023-06-22T07:00:07;11.33;;;10.03;;
1679;SDS011;838;51.794;12.258;2023-06-22T07:02:39;10.00;;;9.00;;
1679;SDS011;838;51.794;12.258;2023-06-22T07:05:06;11.43;;;10.23;;
1679;SDS011;838;51.794;12.258;2023-06-22T07:07:33;11.10;;;10.03;;
1679;SDS011;838;51.794;12.258;2023-06-22T07:09:59;10.60;;;9.47;;
1679;SDS011;838;51.794;12.258;2023-06-22T07:12:25;9.80;;;8.90;;
1679;SDS011;838;51.794;12.258;2023-06-22T07:14:51;11.50;;;10.27;;
1679;SDS011;838;51.794;12.258;2023-06-22T07:17:18;10.57;;;9.53;;
1679;SDS011;838;51.794;12.258;2023-06-22T07:19:44;10.40;;;9.30;;
1679;SDS011;838;51.794;12.258;2023-06-22T07:22:10;13.60;;;9.10;;
1679;SDS011;838;51.794;12.258;2023-06-22T07:24:36;9.63;;;8.63;;
1679;SDS011;838;51.794;12.258;2023-06-22T07:27:02;10.30;;;9.30;;
1679;SDS011;838;51.794;12.258;2023-06-22T07:29:30;10.27;;;9.17;;
1679;SDS011;838;51.794;12.258;2023-06-22T07:31:56;10.37;;;9.30;;
1679;SDS011;838;51.794;12.258;2023-06-22T07:34:22;10.90;;;9.80;;
1679;SDS011;838;51.794;12.258;2023-06-22T07:36:48;9.97;;;8.97;;
1679;SDS011;838;51.794;12.258;2023-06-22T07:39:14;10.90;;;9.80;;
1679;SDS011;838;51.794;12.258;2023-06-22T07:41:40;10.10;;;9.07;;
1679;SDS011;838;51.794;12.258;2023-06-22T07:44:06;9.70;;;8.67;;
1679;SDS011;838;51.794;12.258;2023-06-22T07:46:32;9.87;;;8.83;;
1679;SDS011;838;51.794;12.258;2023-06-22T07:48:58;10.43;;;9.33;;
1679;SDS011;838;51.794;12.258;2023-06-22T07:51:24;10.20;;;9.20;;
1679;SDS011;838;51.794;12.258;2023-06-22T07:53:50;11.80;;;10.63;;
1679;SDS011;838;51.794;12.258;2023-06-22T07:56:17;9.60;;;8.70;;
1679;SDS011;838;51.794;12.258;2023-06-22T07:58:46;10.63;;;9.53;;
1679;SDS011;838;51.794;12.258;2023-06-22T08:01:12;10.10;;;9.10;;
1679;SDS011;838;51.794;12.258;2023-06-22T08:03:42;11.80;;;10.50;;
1679;SDS011;838;51.794;12.258;2023-06-22T08:06:10;10.93;;;9.83;;
1679;SDS011;838;51.794;12.258;2023-06-22T08:08:36;10.80;;;9.70;;
1679;SDS011;838;51.794;12.258;2023-06-22T08:11:02;10.87;;;9.80;;
1679;SDS011;838;51.794;12.258;2023-06-22T08:13:33;11.03;;;10.03;;
1679;SDS011;838;51.794;12.258;2023-06-22T08:15:59;11.60;;;10.50;;
1679;SDS011;838;51.794;12.258;2023-06-22T08:18:24;11.27;;;10.10;;
1679;SDS011;838;51.794;12.258;2023-06-22T08:20:50;10.20;;;9.20;;
1679;SDS011;838;51.794;12.258;2023-06-22T08:23:16;10.90;;;9.77;;
1679;SDS011;838;51.794;12.258;2023-06-22T08:25:42;11.07;;;9.97;;
1679;SDS011;838;51.794;12.258;2023-06-22T08:28:08;11.90;;;9.50;;
1679;SDS011;838;51.794;12.258;2023-06-22T08:30:34;11.13;;;10.03;;
1679;SDS011;838;51.794;12.258;2023-06-22T08:32:59;10.60;;;9.57;;
1679;SDS011;838;51.794;12.258;2023-06-22T08:35:25;10.10;;;9.00;;
1679;SDS011;838;51.794;12.258;2023-06-22T08:37:51;10.17;;;9.20;;
1679;SDS011;838;51.794;12.258;2023-06-22T08:40:22;10.30;;;9.40;;
1679;SDS011;838;51.794;12.258;2023-06-22T08:42:48;10.40;;;9.37;;
1679;SDS011;838;51.794;12.258;2023-06-22T08:45:14;10.00;;;9.00;;
1679;SDS011;838;51.794;12.258;2023-06-22T08:47:40;10.60;;;9.27;;
1679;SDS011;838;51.794;12.258;2023-06-22T08:50:07;9.80;;;8.90;;
1679;SDS011;838;51.794;12.258;2023-06-22T08:52:34;9.43;;;8.53;;
1679;SDS011;838;51.794;12.258;2023-06-22T08:55:00;9.83;;;8.83;;
1679;SDS011;838;51.794;12.258;2023-06-22T08:57:26;9.47;;;8.23;;
1679;SDS011;838;51.794;12.258;2023-06-22T08:59:52;10.03;;;9.03;;
1679;SDS011;838;51.794;12.258;2023-06-22T09:02:19;9.03;;;8.23;;
1679;SDS011;838;51.794;12.258;2023-06-22T09:04:48;9.60;;;8.70;;
1679;SDS011;838;51.794;12.258;2023-06-22T09:07:14;11.00;;;10.00;;
1679;SDS011;838;51.794;12.258;2023-06-22T09:09:47;9.80;;;8.80;;
1679;SDS011;838;51.794;12.258;2023-06-22T09:12:13;8.73;;;7.93;;
1679;SDS011;838;51.794;12.258;2023-06-22T09:14:38;8.27;;;7.47;;
1679;SDS011;838;51.794;12.258;2023-06-22T09:17:04;9.33;;;8.43;;
1679;SDS011;838;51.794;12.258;2023-06-22T09:19:30;8.60;;;7.80;;
1679;SDS011;838;51.794;12.258;2023-06-22T09:21:56;8.80;;;8.00;;
1679;SDS011;838;51.794;12.258;2023-06-22T09:24:22;9.30;;;8.50;;
1679;SDS011;838;51.794;12.258;2023-06-22T09:26:48;9.63;;;8.73;;
1679;SDS011;838;51.794;12.258;2023-06-22T09:29:13;8.03;;;7.27;;
1679;SDS011;838;51.794;12.258;2023-06-22T09:31:39;8.63;;;7.87;;
1679;SDS011;838;51.794;12.258;2023-06-22T09:34:05;7.70;;;6.97;;
1679;SDS011;838;51.794;12.258;2023-06-22T09:36:31;8.27;;;7.40;;
1679;SDS011;838;51.794;12.258;2023-06-22T09:38:57;7.73;;;7.03;;
1679;SDS011;838;51.794;12.258;2023-06-22T09:41:24;7.37;;;6.67;;
1679;SDS011;838;51.794;12.258;2023-06-22T09:43:50;8.40;;;7.60;;
1679;SDS011;838;51.794;12.258;2023-06-22T09:46:16;7.73;;;6.87;;
1679;SDS011;838;51.794;12.258;2023-06-22T09:48:42;8.03;;;7.23;;
1679;SDS011;838;51.794;12.258;2023-06-22T09:51:08;7.93;;;6.57;;
1679;SDS011;838;51.794;12.258;2023-06-22T09:53:34;8.70;;;7.77;;
1679;SDS011;838;51.794;12.258;2023-06-22T09:56:00;6.93;;;5.97;;
1679;SDS011;838;51.794;12.258;2023-06-22T09:58:27;6.63;;;5.93;;
1679;SDS011;838;51.794;12.258;2023-06-22T10:00:53;6.80;;;6.10;;
1679;SDS011;838;51.794;12.258;2023-06-22T10:03:19;7.07;;;6.23;;
1679;SDS011;838;51.794;12.258;2023-06-22T10:05:45;7.47;;;5.90;;
1679;SDS011;838;51.794;12.258;2023-06-22T10:08:11;7.33;;;6.63;;
1679;SDS011;838;51.794;12.258;2023-06-22T10:10:37;7.43;;;6.60;;
1679;SDS011;838;51.794;12.258;2023-06-22T10:13:09;7.03;;;6.30;;
1679;SDS011;838;51.794;12.258;2023-06-22T10:15:36;7.50;;;6.73;;
1679;SDS011;838;51.794;12.258;2023-06-22T10:18:02;7.93;;;6.50;;
1679;SDS011;838;51.794;12.258;2023-06-22T10:20:28;7.70;;;6.60;;
1679;SDS011;838;51.794;12.258;2023-06-22T10:22:54;7.73;;;6.60;;
1679;SDS011;838;51.794;12.258;2023-06-22T10:25:19;7.70;;;6.90;;
1679;SDS011;838;51.794;12.258;2023-06-22T10:27:45;6.53;;;5.93;;
1679;SDS011;838;51.794;12.258;2023-06-22T10:30:11;6.97;;;6.27;;
1679;SDS011;838;51.794;12.258;2023-06-22T10:32:38;6.70;;;5.87;;
1679;SDS011;838;51.794;12.258;2023-06-22T10:35:05;8.43;;;5.77;;
1679;SDS011;838;51.794;12.258;2023-06-22T10:37:31;6.30;;;5.70;;
1679;SDS011;838;51.794;12.258;2023-06-22T10:39:57;8.00;;;6.80;;
1679;SDS011;838;51.794;12.258;2023-06-22T10:42:22;9.10;;;6.73;;
1679;SDS011;838;51.794;12.258;2023-06-22T10:44:48;7.37;;;6.50;;
1679;SDS011;838;51.794;12.258;2023-06-22T10:47:14;7.70;;;5.90;;
1679;SDS011;838;51.794;12.258;2023-06-22T10:49:40;6.77;;;5.57;;
1679;SDS011;838;51.794;12.258;2023-06-22T10:52:07;5.73;;;5.20;;
1679;SDS011;838;51.794;12.258;2023-06-22T10:54:33;7.37;;;6.67;;
1679;SDS011;838;51.794;12.258;2023-06-22T10:56:59;6.57;;;5.97;;
1679;SDS011;838;51.794;12.258;2023-06-22T10:59:25;7.00;;;6.30;;
1679;SDS011;838;51.794;12.258;2023-06-22T11:01:52;6.97;;;6.00;;
1679;SDS011;838;51.794;12.258;2023-06-22T11:04:18;6.70;;;6.00;;
1679;SDS011;838;51.794;12.258;2023-06-22T11:06:44;6.30;;;5.70;;
1679;SDS011;838;51.794;12.258;2023-06-22T11:09:10;6.30;;;5.30;;
1679;SDS011;838;51.794;12.258;2023-06-22T11:11:35;7.10;;;6.40;;
1679;SDS011;838;51.794;12.258;2023-06-22T11:14:01;5.80;;;5.30;;
1679;SDS011;838;51.794;12.258;2023-06-22T11:16:27;7.57;;;6.80;;
1679;SDS011;838;51.794;12.258;2023-06-22T11:18:53;7.17;;;6.47;;
1679;SDS011;838;51.794;12.258;2023-06-22T11:21:18;7.40;;;6.10;;
1679;SDS011;838;51.794;12.258;2023-06-22T11:23:44;7.47;;;6.73;;
1679;SDS011;838;51.794;12.258;2023-06-22T11:26:10;7.10;;;6.40;;
1679;SDS011;838;51.794;12.258;2023-06-22T11:28:36;9.87;;;7.27;;
1679;SDS011;838;51.794;12.258;2023-06-22T11:31:01;7.60;;;6.80;;
1679;SDS011;838;51.794;12.258;2023-06-22T11:33:28;7.07;;;6.07;;
1679;SDS011;838;51.794;12.258;2023-06-22T11:35:54;8.60;;;7.13;;
1679;SDS011;838;51.794;12.258;2023-06-22T11:38:21;7.40;;;6.70;;
1679;SDS011;838;51.794;12.258;2023-06-22T11:40:47;6.80;;;6.10;;
1679;SDS011;838;51.794;12.258;2023-06-22T11:43:13;7.27;;;6.57;;
1679;SDS011;838;51.794;12.258;2023-06-22T11:45:40;7.10;;;6.37;;
1679;SDS011;838;51.794;12.258;2023-06-22T11:48:06;6.87;;;6.17;;
1679;SDS011;838;51.794;12.258;2023-06-22T11:50:31;7.17;;;6.10;;
1679;SDS011;838;51.794;12.258;2023-06-22T11:53:01;7.40;;;6.63;;
1679;SDS011;838;51.794;12.258;2023-06-22T11:55:27;6.60;;;5.90;;
1679;SDS011;838;51.794;12.258;2023-06-22T11:57:57;7.57;;;6.80;;
1679;SDS011;838;51.794;12.258;2023-06-22T12:00:28;7.27;;;6.57;;
1679;SDS011;838;51.794;12.258;2023-06-22T12:02:55;7.07;;;6.47;;
1679;SDS011;838;51.794;12.258;2023-06-22T12:05:23;6.83;;;6.20;;
1679;SDS011;838;51.794;12.258;2023-06-22T12:07:53;6.60;;;6.00;;
1679;SDS011;838;51.794;12.258;2023-06-22T12:10:19;7.33;;;6.53;;
1679;SDS011;838;51.794;12.258;2023-06-22T12:12:45;6.20;;;5.60;;
1679;SDS011;838;51.794;12.258;2023-06-22T12:15:11;7.17;;;6.47;;
1679;SDS011;838;51.794;12.258;2023-06-22T12:17:40;7.03;;;6.33;;
1679;SDS011;838;51.794;12.258;2023-06-22T12:20:08;6.80;;;6.10;;
1679;SDS011;838;51.794;12.258;2023-06-22T12:22:34;6.80;;;6.10;;
1679;SDS011;838;51.794;12.258;2023-06-22T12:25:02;5.90;;;5.30;;
1679;SDS011;838;51.794;12.258;2023-06-22T12:27:29;8.53;;;6.40;;
1679;SDS011;838;51.794;12.258;2023-06-22T12:29:55;7.20;;;6.50;;
1679;SDS011;838;51.794;12.258;2023-06-22T12:32:21;7.13;;;6.43;;
1679;SDS011;838;51.794;12.258;2023-06-22T12:34:47;6.33;;;5.63;;
1679;SDS011;838;51.794;12.258;2023-06-22T12:37:13;6.87;;;6.20;;
1679;SDS011;838;51.794;12.258;2023-06-22T12:39:40;5.87;;;5.27;;
1679;SDS011;838;51.794;12.258;2023-06-22T12:42:06;6.97;;;6.10;;
1679;SDS011;838;51.794;12.258;2023-06-22T12:44:40;6.47;;;5.83;;
1679;SDS011;838;51.794;12.258;2023-06-22T12:47:06;6.53;;;5.93;;
1679;SDS011;838;51.794;12.258;2023-06-22T12:49:33;6.30;;;5.70;;
1679;SDS011;838;51.794;12.258;2023-06-22T12:52:00;7.23;;;6.43;;
1679;SDS011;838;51.794;12.258;2023-06-22T12:54:26;6.50;;;5.90;;
1679;SDS011;838;51.794;12.258;2023-06-22T12:56:53;8.03;;;7.33;;
1679;SDS011;838;51.794;12.258;2023-06-22T12:59:18;7.30;;;6.60;;
1679;SDS011;838;51.794;12.258;2023-06-22T13:01:44;7.47;;;6.77;;
1679;SDS011;838;51.794;12.258;2023-06-22T13:04:11;6.90;;;6.10;;
1679;SDS011;838;51.794;12.258;2023-06-22T13:06:40;7.00;;;6.37;;
1679;SDS011;838;51.794;12.258;2023-06-22T13:09:06;6.87;;;6.17;;
1679;SDS011;838;51.794;12.258;2023-06-22T13:11:34;6.40;;;5.73;;
1679;SDS011;838;51.794;12.258;2023-06-22T13:14:00;7.57;;;6.87;;
1679;SDS011;838;51.794;12.258;2023-06-22T13:16:25;7.00;;;6.30;;
1679;SDS011;838;51.794;12.258;2023-06-22T13:18:51;7.83;;;7.03;;
1679;SDS011;838;51.794;12.258;2023-06-22T13:21:17;7.80;;;6.63;;
1679;SDS011;838;51.794;12.258;2023-06-22T13:23:43;6.53;;;5.93;;
1679;SDS011;838;51.794;12.258;2023-06-22T13:26:08;7.10;;;6.40;;
1679;SDS011;838;51.794;12.258;2023-06-22T13:28:37;8.57;;;7.67;;
1679;SDS011;838;51.794;12.258;2023-06-22T13:31:03;7.70;;;6.83;;
1679;SDS011;838;51.794;12.258;2023-06-22T13:33:28;7.37;;;6.40;;
1679;SDS011;838;51.794;12.258;2023-06-22T13:35:54;7.40;;;6.70;;
1679;SDS011;838;51.794;12.258;2023-06-22T13:38:20;9.27;;;7.17;;
1679;SDS011;838;51.794;12.258;2023-06-22T13:40:46;6.80;;;6.20;;
1679;SDS011;838;51.794;12.258;2023-06-22T13:43:12;8.80;;;7.90;;
1679;SDS011;838;51.794;12.258;2023-06-22T13:45:38;8.93;;;8.00;;
1679;SDS011;838;51.794;12.258;2023-06-22T13:48:04;8.23;;;7.40;;
1679;SDS011;838;51.794;12.258;2023-06-22T13:50:30;7.40;;;6.70;;
1679;SDS011;838;51.794;12.258;2023-06-22T13:52:56;7.77;;;7.07;;
1679;SDS011;838;51.794;12.258;2023-06-22T13:55:22;8.10;;;7.37;;
1679;SDS011;838;51.794;12.258;2023-06-22T13:57:48;9.43;;;7.90;;
1679;SDS011;838;51.794;12.258;2023-06-22T14:00:16;8.30;;;6.67;;
1679;SDS011;838;51.794;12.258;2023-06-22T14:02:42;7.87;;;7.17;;
1679;SDS011;838;51.794;12.258;2023-06-22T14:05:08;7.43;;;6.30;;
1679;SDS011;838;51.794;12.258;2023-06-22T14:07:35;7.60;;;6.90;;
1679;SDS011;838;51.794;12.258;2023-06-22T14:10:02;8.00;;;7.30;;
1679;SDS011;838;51.794;12.258;2023-06-22T14:12:29;7.50;;;6.77;;
1679;SDS011;838;51.794;12.258;2023-06-22T14:14:55;7.43;;;6.63;;
1679;SDS011;838;51.794;12.258;2023-06-22T14:17:22;6.77;;;6.17;;
1679;SDS011;838;51.794;12.258;2023-06-22T14:19:50;7.50;;;6.80;;
1679;SDS011;838;51.794;12.258;2023-06-22T14:22:21;7.43;;;6.73;;
1679;SDS011;838;51.794;12.258;2023-06-22T14:24:47;7.50;;;6.80;;
1679;SDS011;838;51.794;12.258;2023-06-22T14:27:13;7.30;;;6.60;;
1679;SDS011;838;51.794;12.258;2023-06-22T14:29:39;8.20;;;7.00;;
1679;SDS011;838;51.794;12.258;2023-06-22T14:32:05;7.40;;;6.70;;
1679;SDS011;838;51.794;12.258;2023-06-22T14:34:32;7.10;;;6.40;;
1679;SDS011;838;51.794;12.258;2023-06-22T14:37:01;7.03;;;6.10;;
1679;SDS011;838;51.794;12.258;2023-06-22T14:39:27;6.97;;;6.27;;
1679;SDS011;838;51.794;12.258;2023-06-22T14:41:53;7.57;;;6.43;;
1679;SDS011;838;51.794;12.258;2023-06-22T14:44:19;7.37;;;6.67;;
1679;SDS011;838;51.794;12.258;2023-06-22T14:46:45;6.40;;;5.80;;
1679;SDS011;838;51.794;12.258;2023-06-22T14:49:11;7.80;;;7.00;;
1679;SDS011;838;51.794;12.258;2023-06-22T14:51:36;6.50;;;5.83;;
1679;SDS011;838;51.794;12.258;2023-06-22T14:54:02;6.90;;;6.30;;
1679;SDS011;838;51.794;12.258;2023-06-22T14:56:28;6.80;;;5.70;;
1679;SDS011;838;51.794;12.258;2023-06-22T14:58:54;6.90;;;6.20;;
1679;SDS011;838;51.794;12.258;2023-06-22T15:01:20;7.30;;;6.60;;
1679;SDS011;838;51.794;12.258;2023-06-22T15:03:46;7.07;;;5.90;;
1679;SDS011;838;51.794;12.258;2023-06-22T15:06:12;7.97;;;7.17;;
1679;SDS011;838;51.794;12.258;2023-06-22T15:08:38;6.77;;;6.07;;
1679;SDS011;838;51.794;12.258;2023-06-22T15:11:05;6.90;;;6.30;;
1679;SDS011;838;51.794;12.258;2023-06-22T15:13:31;6.80;;;5.47;;